Time;durP1;ratioP1;P1;durP2;ratioP2;P2;SDS_P1;SDS_P2;PMS_P1;PMS_P2;Temp;Humidity;BMP_temperature;BMP_pressure;BME280_temperature;BME280_humidity;BME280_pressure;Samples;Min_cycle;Max_cycle;Signal;HPM_P1;HPM_P2
2023/03/25 00:02:16;;;;;;;3.27;1.57;;;10.80;99.90;;;;;;5008578;28;20216;-71
2023/03/25 00:04:43;;;;;;;2.20;1.40;;;10.80;99.90;;;;;;5007871;28;20271;-71
2023/03/25 00:07:10;;;;;;;1.93;1.77;;;10.90;99.90;;;;;;5008467;28;20209;-71
2023/03/25 00:09:37;;;;;;;2.27;1.77;;;10.90;99.90;;;;;;5008213;28;20237;-72
2023/03/25 00:12:04;;;;;;;1.87;1.50;;;10.90;99.90;;;;;;5008322;28;20214;-71
2023/03/25 00:14:31;;;;;;;1.67;1.57;;;10.90;99.90;;;;;;5008868;28;20305;-71
2023/03/25 00:17:00;;;;;;;1.67;1.50;;;10.90;99.90;;;;;;5008398;28;20237;-71
2023/03/25 00:19:28;;;;;;;1.80;1.30;;;10.90;99.90;;;;;;5008163;28;20213;-71
2023/03/25 00:21:55;;;;;;;2.97;1.77;;;10.90;99.90;;;;;;5008126;28;20209;-71
2023/03/25 00:24:22;;;;;;;1.60;1.50;;;10.80;99.90;;;;;;5007796;28;20744;-71
2023/03/25 00:26:49;;;;;;;1.60;1.50;;;10.80;99.90;;;;;;5008006;28;20218;-71
2023/03/25 00:29:16;;;;;;;1.73;1.50;;;10.80;99.90;;;;;;5008020;28;20205;-71
2023/03/25 00:31:43;;;;;;;2.43;1.80;;;10.80;99.90;;;;;;5007919;28;20563;-71
2023/03/25 00:34:13;;;;;;;1.70;1.60;;;10.80;99.90;;;;;;5007681;28;20300;-71
2023/03/25 00:36:42;;;;;;;1.77;1.57;;;10.80;99.90;;;;;;5008067;28;20240;-71
2023/03/25 00:39:10;;;;;;;1.97;1.70;;;10.70;99.90;;;;;;5007619;28;20698;-71
2023/03/25 00:41:40;;;;;;;1.83;1.50;;;10.60;99.90;;;;;;5003977;28;20301;-71
2023/03/25 00:44:07;;;;;;;2.10;1.43;;;10.60;99.90;;;;;;5007808;28;20225;-71
2023/03/25 00:46:34;;;;;;;2.00;1.80;;;10.60;99.90;;;;;;5007840;28;20766;-71
2023/03/25 00:49:01;;;;;;;1.77;1.60;;;10.60;99.90;;;;;;5007306;28;20582;-71
2023/03/25 00:51:30;;;;;;;1.50;1.40;;;10.50;99.90;;;;;;5007519;28;20256;-71
2023/03/25 00:54:00;;;;;;;1.73;1.60;;;10.50;99.90;;;;;;5007689;28;20210;-71
2023/03/25 00:56:27;;;;;;;1.63;1.37;;;10.50;99.90;;;;;;5007280;28;20234;-71
2023/03/25 00:58:54;;;;;;;1.30;1.20;;;10.50;99.90;;;;;;5007601;28;20328;-70
2023/03/25 01:01:25;;;;;;;1.50;1.40;;;10.50;99.90;;;;;;5007967;28;20305;-71
2023/03/25 01:03:56;;;;;;;1.50;1.40;;;10.50;99.90;;;;;;5007171;28;20197;-71
2023/03/25 01:06:27;;;;;;;1.53;1.43;;;10.60;99.90;;;;;;5007226;28;20201;-71
2023/03/25 01:08:55;;;;;;;1.70;1.20;;;10.60;99.90;;;;;;5007135;28;20802;-71
2023/03/25 01:11:26;;;;;;;1.67;1.40;;;10.60;99.90;;;;;;5007132;28;20237;-71
2023/03/25 01:13:55;;;;;;;1.90;1.70;;;10.60;99.90;;;;;;5007329;28;20264;-71
2023/03/25 01:16:22;;;;;;;2.40;1.20;;;10.60;99.90;;;;;;5006784;28;20229;-71
2023/03/25 01:18:50;;;;;;;1.60;1.40;;;10.60;99.90;;;;;;5006382;28;20221;-71
2023/03/25 01:21:18;;;;;;;1.93;1.33;;;10.60;99.90;;;;;;5007228;28;20209;-71
2023/03/25 01:23:45;;;;;;;1.40;1.30;;;10.60;99.90;;;;;;5006853;28;20209;-71
2023/03/25 01:26:12;;;;;;;1.63;1.50;;;10.60;99.90;;;;;;5007099;28;20224;-71
2023/03/25 01:28:41;;;;;;;2.30;1.43;;;10.60;99.90;;;;;;5007036;28;20202;-71
2023/03/25 01:31:10;;;;;;;3.00;1.37;;;10.60;99.90;;;;;;5006778;28;20263;-71
2023/03/25 01:33:37;;;;;;;1.60;1.17;;;10.60;99.90;;;;;;5006111;28;20292;-71
2023/03/25 01:36:08;;;;;;;3.67;1.20;;;10.60;99.90;;;;;;5006384;28;20233;-71
2023/03/25 01:38:35;;;;;;;4.50;1.17;;;10.50;99.90;;;;;;5006679;28;20216;-72
2023/03/25 01:41:03;;;;;;;1.40;1.30;;;10.50;99.90;;;;;;5007067;28;20217;-72
2023/03/25 01:43:30;;;;;;;1.67;1.10;;;10.50;99.90;;;;;;5026580;28;20229;-72
2023/03/25 01:45:59;;;;;;;1.37;1.10;;;10.50;99.90;;;;;;5026483;28;20209;-70
2023/03/25 01:48:31;;;;;;;1.93;1.13;;;10.40;99.90;;;;;;5026533;28;20523;-71
2023/03/25 01:51:02;;;;;;;1.20;1.17;;;10.40;99.90;;;;;;5026218;28;20216;-71
2023/03/25 01:53:31;;;;;;;1.47;1.00;;;10.40;99.90;;;;;;5026537;28;20288;-72
2023/03/25 01:56:02;;;;;;;1.93;1.10;;;10.40;99.90;;;;;;5026154;28;20910;-72
2023/03/25 01:58:31;;;;;;;10.13;1.30;;;10.40;99.90;;;;;;5026139;28;20209;-72
2023/03/25 02:01:00;;;;;;;3.10;1.30;;;10.40;99.90;;;;;;5026241;28;20215;-71
2023/03/25 02:03:29;;;;;;;2.10;1.13;;;10.50;99.90;;;;;;5026464;28;20223;-72
2023/03/25 02:06:01;;;;;;;1.30;1.20;;;10.50;99.90;;;;;;5010958;28;20226;-71
2023/03/25 02:08:31;;;;;;;2.00;1.20;;;10.50;99.90;;;;;;5006625;28;20198;-72
2023/03/25 02:10:58;;;;;;;1.60;1.50;;;10.50;99.90;;;;;;5006157;28;20237;-71
2023/03/25 02:13:26;;;;;;;1.60;0.90;;;10.40;99.90;;;;;;5006140;28;20616;-72
2023/03/25 02:16:10;;;;;;;2.70;1.50;;;10.40;99.90;;;;;;4992132;28;20252;-72
2023/03/25 02:18:50;;;;;;;1.40;1.20;;;10.50;99.90;;;;;;4985840;28;20202;-71
2023/03/25 02:22:10;;;;;;;2.73;1.20;;;10.40;99.90;;;;;;4986528;28;20198;-72
2023/03/25 02:25:19;;;;;;;1.57;1.30;;;10.40;99.90;;;;;;4944667;29;20234;-72
2023/03/25 02:28:02;;;;;;;2.73;1.43;;;10.40;99.90;;;;;;4965828;28;20214;-72
2023/03/25 02:30:46;;;;;;;1.53;1.00;;;10.40;99.90;;;;;;4986112;28;20297;-72
2023/03/25 02:33:41;;;;;;;1.50;1.10;;;10.40;99.90;;;;;;4985673;28;20202;-71
2023/03/25 02:36:40;;;;;;;2.23;1.30;;;10.40;99.90;;;;;;5002056;28;20285;-71
2023/03/25 02:39:13;;;;;;;1.30;1.20;;;10.40;99.90;;;;;;5005349;28;20197;-70
2023/03/25 02:41:46;;;;;;;1.67;1.57;;;10.40;99.90;;;;;;5011257;28;20201;-71
2023/03/25 02:44:16;;;;;;;1.73;1.30;;;10.40;99.90;;;;;;5025338;28;20227;-71
2023/03/25 02:46:49;;;;;;;1.40;1.17;;;10.40;99.90;;;;;;5025540;28;20215;-71
2023/03/25 02:49:23;;;;;;;1.60;1.00;;;10.40;99.90;;;;;;5025038;28;20303;-71
2023/03/25 02:51:56;;;;;;;1.30;1.20;;;10.40;99.90;;;;;;5025209;28;20192;-71
2023/03/25 02:54:27;;;;;;;1.40;1.30;;;10.40;99.90;;;;;;5025273;28;20295;-71
2023/03/25 02:56:56;;;;;;;1.20;1.20;;;10.40;99.90;;;;;;5025064;28;20303;-71
2023/03/25 02:59:23;;;;;;;1.37;1.27;;;10.40;99.90;;;;;;5024892;28;20208;-71
2023/03/25 03:01:50;;;;;;;1.47;1.20;;;10.30;99.90;;;;;;5009084;28;20321;-71
2023/03/25 03:04:17;;;;;;;1.87;1.20;;;10.30;99.90;;;;;;5004973;28;20275;-71
2023/03/25 03:06:44;;;;;;;2.80;1.27;;;10.30;99.90;;;;;;5005424;28;20300;-72
2023/03/25 03:09:29;;;;;;;2.23;1.00;;;10.20;99.90;;;;;;5005573;28;20209;-71
2023/03/25 03:12:07;;;;;;;1.00;1.00;;;10.10;99.90;;;;;;5005357;28;20742;-72
2023/03/25 03:14:47;;;;;;;1.70;1.20;;;10.00;99.90;;;;;;5005788;28;20208;-71
2023/03/25 03:17:21;;;;;;;2.60;1.17;;;9.90;99.90;;;;;;5005271;28;20315;-71
2023/03/25 03:19:52;;;;;;;2.77;1.30;;;9.80;99.90;;;;;;5004727;28;20744;-71
2023/03/25 03:22:37;;;;;;;2.57;1.37;;;9.90;99.90;;;;;;5005076;28;20194;-71
2023/03/25 03:25:13;;;;;;;2.07;1.10;;;9.90;99.90;;;;;;5005424;28;20794;-71
2023/03/25 03:27:45;;;;;;;3.13;1.40;;;9.90;99.90;;;;;;5005102;28;20299;-71
2023/03/25 03:30:20;;;;;;;1.80;1.10;;;9.80;99.90;;;;;;5005600;28;20240;-71
2023/03/25 03:32:53;;;;;;;1.77;1.20;;;9.70;99.90;;;;;;5009055;28;20279;-71
2023/03/25 03:35:24;;;;;;;1.23;1.13;;;9.60;99.90;;;;;;5008914;28;20197;-71
2023/03/25 03:37:57;;;;;;;1.17;0.90;;;9.60;99.90;;;;;;5008828;28;20307;-72
2023/03/25 03:40:29;;;;;;;2.07;1.03;;;9.50;99.90;;;;;;5008906;28;21153;-71
2023/03/25 03:42:59;;;;;;;3.03;1.40;;;9.50;99.90;;;;;;5024533;28;20446;-71
2023/03/25 03:45:34;;;;;;;2.17;1.23;;;9.40;99.90;;;;;;5028708;28;20201;-71
2023/03/25 03:48:06;;;;;;;2.90;1.27;;;9.30;99.90;;;;;;5028666;28;20195;-71
2023/03/25 03:50:38;;;;;;;2.57;1.00;;;9.20;99.90;;;;;;5028201;28;20197;-71
2023/03/25 03:53:11;;;;;;;2.10;1.23;;;9.20;99.90;;;;;;5028831;28;20622;-71
2023/03/25 03:55:43;;;;;;;2.80;1.20;;;9.20;99.90;;;;;;5028847;28;20280;-71
2023/03/25 03:58:14;;;;;;;2.07;1.10;;;9.30;99.90;;;;;;5011504;28;20225;-71
2023/03/25 04:00:48;;;;;;;1.20;1.10;;;9.30;99.90;;;;;;5008554;28;20194;-71
2023/03/25 04:03:23;;;;;;;2.10;1.00;;;9.20;99.90;;;;;;5008454;28;20657;-71
2023/03/25 04:05:54;;;;;;;1.97;1.00;;;9.20;99.90;;;;;;5008301;28;20231;-71
2023/03/25 04:08:29;;;;;;;2.30;1.03;;;9.20;99.90;;;;;;5008251;28;20300;-71
2023/03/25 04:11:02;;;;;;;2.03;1.07;;;9.30;99.90;;;;;;5008401;28;20659;-71
2023/03/25 04:13:35;;;;;;;3.37;1.30;;;9.30;99.90;;;;;;5008855;28;20214;-72
2023/03/25 04:16:02;;;;;;;1.10;1.00;;;9.40;99.90;;;;;;5008514;28;20198;-71
2023/03/25 04:18:32;;;;;;;3.00;1.40;;;9.40;99.90;;;;;;5008627;28;20247;-70
2023/03/25 04:20:59;;;;;;;0.83;0.80;;;9.40;99.90;;;;;;5008102;28;20205;-71
2023/03/25 04:23:28;;;;;;;1.77;0.90;;;9.40;99.90;;;;;;5008436;28;20274;-71
2023/03/25 04:26:01;;;;;;;1.80;0.80;;;9.40;99.90;;;;;;5008104;28;20237;-70
2023/03/25 04:28:28;;;;;;;2.53;0.90;;;9.30;99.90;;;;;;5008063;28;20194;-71
2023/03/25 04:30:56;;;;;;;1.67;1.13;;;9.30;99.90;;;;;;5008205;28;20209;-71
2023/03/25 04:33:24;;;;;;;2.30;0.90;;;9.20;99.90;;;;;;5007878;28;20996;-70
2023/03/25 04:35:51;;;;;;;2.07;1.13;;;9.20;99.90;;;;;;5007569;28;20328;-70
2023/03/25 04:38:18;;;;;;;3.30;1.00;;;9.30;99.90;;;;;;5007657;28;20605;-71
2023/03/25 04:40:46;;;;;;;2.03;0.90;;;9.30;99.90;;;;;;5007511;28;20304;-71
2023/03/25 04:43:15;;;;;;;1.50;1.10;;;9.30;99.90;;;;;;5025905;28;20233;-71
2023/03/25 04:45:47;;;;;;;1.67;1.00;;;9.20;99.90;;;;;;5027662;28;20291;-71
2023/03/25 04:48:22;;;;;;;1.73;1.10;;;9.30;99.90;;;;;;5027128;28;20201;-70
2023/03/25 04:50:50;;;;;;;3.47;1.30;;;9.20;99.90;;;;;;5026394;28;20192;-70
2023/03/25 04:53:17;;;;;;;4.43;1.20;;;9.20;99.90;;;;;;5017077;28;20217;-71
2023/03/25 04:55:46;;;;;;;1.37;1.10;;;9.20;99.90;;;;;;4988112;28;20218;-71
2023/03/25 04:58:15;;;;;;;1.37;1.00;;;9.10;99.90;;;;;;4987872;28;20796;-70
2023/03/25 05:00:43;;;;;;;1.17;0.90;;;9.10;99.90;;;;;;4989486;28;20299;-71
2023/03/25 05:03:11;;;;;;;3.27;1.20;;;9.10;99.90;;;;;;5007699;28;20236;-70
2023/03/25 05:05:38;;;;;;;4.70;1.13;;;9.10;99.90;;;;;;5007169;28;20567;-71
2023/03/25 05:08:06;;;;;;;1.63;1.03;;;9.20;99.90;;;;;;5007529;28;20205;-72
2023/03/25 05:10:35;;;;;;;1.20;0.90;;;9.20;99.90;;;;;;5007188;28;20241;-71
2023/03/25 05:13:03;;;;;;;2.10;0.90;;;9.20;99.90;;;;;;5007367;28;20210;-71
2023/03/25 05:15:38;;;;;;;1.17;0.83;;;9.20;99.90;;;;;;5007018;28;20249;-70
2023/03/25 05:18:05;;;;;;;2.30;1.00;;;9.20;99.90;;;;;;5007257;28;20229;-71
2023/03/25 05:20:33;;;;;;;2.10;0.70;;;9.20;99.90;;;;;;5006678;28;20672;-71
2023/03/25 05:23:00;;;;;;;0.90;0.80;;;9.20;99.90;;;;;;5006943;28;20264;-72
2023/03/25 05:25:27;;;;;;;1.60;0.77;;;9.20;99.90;;;;;;5007101;28;20272;-71
2023/03/25 05:27:54;;;;;;;1.83;0.77;;;9.10;99.90;;;;;;5007247;28;20210;-72
2023/03/25 05:30:21;;;;;;;0.90;0.70;;;9.10;99.90;;;;;;5007268;28;20228;-71
2023/03/25 05:32:52;;;;;;;1.50;1.30;;;9.20;99.90;;;;;;5007148;28;20905;-71
2023/03/25 05:35:19;;;;;;;1.00;0.90;;;9.20;99.90;;;;;;5006853;28;20202;-71
2023/03/25 05:37:49;;;;;;;1.03;0.73;;;9.20;99.90;;;;;;5006990;28;20324;-72
2023/03/25 05:40:16;;;;;;;3.60;1.03;;;9.20;99.90;;;;;;5006830;28;20880;-71
2023/03/25 05:42:45;;;;;;;1.43;0.80;;;9.30;99.90;;;;;;5006564;28;20225;-71
2023/03/25 05:45:12;;;;;;;1.17;0.77;;;9.30;99.90;;;;;;5006780;28;20283;-71
2023/03/25 05:47:40;;;;;;;0.60;0.60;;;9.30;99.90;;;;;;5006627;28;20216;-71
2023/03/25 05:50:10;;;;;;;1.77;0.93;;;9.30;99.90;;;;;;5006260;28;20205;-71
2023/03/25 05:52:40;;;;;;;1.47;0.70;;;9.30;99.90;;;;;;5006273;28;20201;-71
2023/03/25 05:55:10;;;;;;;0.60;0.60;;;9.30;99.90;;;;;;5006364;28;20216;-71
2023/03/25 05:57:37;;;;;;;1.13;0.70;;;9.30;99.90;;;;;;5006148;28;20320;-69
2023/03/25 06:00:07;;;;;;;1.03;0.73;;;9.30;99.90;;;;;;5006215;28;20587;-69
2023/03/25 06:02:37;;;;;;;1.60;0.60;;;9.30;99.90;;;;;;5006451;28;20215;-70
2023/03/25 06:05:04;;;;;;;1.60;0.77;;;9.40;99.90;;;;;;5006489;28;20604;-70
2023/03/25 06:07:33;;;;;;;1.10;0.50;;;9.40;99.90;;;;;;5006554;28;20321;-69
2023/03/25 06:10:00;;;;;;;1.27;0.80;;;9.40;99.90;;;;;;5006038;28;20327;-70
2023/03/25 06:12:28;;;;;;;0.67;0.60;;;9.30;99.90;;;;;;5006069;28;20725;-70
2023/03/25 06:14:55;;;;;;;1.57;0.40;;;9.40;99.90;;;;;;5005817;28;20217;-70
2023/03/25 06:17:23;;;;;;;1.93;0.50;;;9.40;99.90;;;;;;5006131;28;20272;-70
2023/03/25 06:19:51;;;;;;;2.77;0.60;;;9.40;99.90;;;;;;5005506;28;20300;-70
2023/03/25 06:22:20;;;;;;;1.27;0.73;;;9.40;99.90;;;;;;5005844;28;20214;-71
2023/03/25 06:24:49;;;;;;;0.40;0.40;;;9.40;99.90;;;;;;5005602;28;20267;-70
2023/03/25 06:27:18;;;;;;;2.33;0.60;;;9.40;99.90;;;;;;5005941;28;20214;-70
2023/03/25 06:29:46;;;;;;;0.90;0.57;;;9.40;99.90;;;;;;5005895;28;20292;-70
2023/03/25 06:32:14;;;;;;;0.97;0.67;;;9.40;99.90;;;;;;5005988;28;20295;-70
2023/03/25 06:34:42;;;;;;;2.40;0.57;;;9.50;99.90;;;;;;5005576;28;20622;-70
2023/03/25 06:37:10;;;;;;;1.30;0.60;;;9.50;99.90;;;;;;5005598;28;20763;-71
2023/03/25 06:39:37;;;;;;;1.50;0.60;;;9.50;99.90;;;;;;5005799;28;20292;-70
2023/03/25 06:42:06;;;;;;;1.50;0.50;;;9.50;99.90;;;;;;5014748;28;20220;-71
2023/03/25 06:44:35;;;;;;;1.13;0.80;;;9.60;99.90;;;;;;5025565;28;20212;-72
2023/03/25 06:47:04;;;;;;;1.93;0.77;;;9.60;99.90;;;;;;5007398;28;20730;-71
2023/03/25 06:49:31;;;;;;;0.90;0.60;;;9.60;99.90;;;;;;5005086;28;20924;-71
2023/03/25 06:51:58;;;;;;;0.73;0.73;;;9.50;99.90;;;;;;5005181;28;20679;-71
2023/03/25 06:54:25;;;;;;;0.70;0.40;;;9.50;99.90;;;;;;5005523;28;20231;-71
2023/03/25 06:56:51;;;;;;;1.53;0.70;;;9.50;99.90;;;;;;5005439;28;20300;-71
2023/03/25 06:59:20;;;;;;;0.93;0.50;;;9.50;99.90;;;;;;5005091;28;20339;-71
2023/03/25 07:01:47;;;;;;;1.17;0.60;;;9.60;99.90;;;;;;5005212;28;20296;-71
2023/03/25 07:04:13;;;;;;;0.50;0.40;;;9.70;99.90;;;;;;5005359;28;20240;-71
2023/03/25 07:06:41;;;;;;;1.00;0.43;;;9.80;99.90;;;;;;5005147;28;20292;-71
2023/03/25 07:09:08;;;;;;;0.50;0.50;;;9.80;99.90;;;;;;5005415;28;20776;-71
2023/03/25 07:11:35;;;;;;;1.20;0.50;;;9.90;99.90;;;;;;4999608;28;20674;-71
2023/03/25 07:14:02;;;;;;;1.63;0.50;;;9.90;99.90;;;;;;4985937;28;20635;-71
2023/03/25 07:16:30;;;;;;;1.50;0.50;;;10.00;99.90;;;;;;4985800;28;20297;-71
2023/03/25 07:18:57;;;;;;;0.60;0.60;;;10.00;99.90;;;;;;4985604;28;20356;-71
2023/03/25 07:21:25;;;;;;;1.40;0.57;;;10.10;99.90;;;;;;4985674;28;20736;-71
2023/03/25 07:23:52;;;;;;;0.87;0.47;;;10.20;99.90;;;;;;4995016;28;20296;-71
2023/03/25 07:26:19;;;;;;;1.60;0.63;;;10.30;99.90;;;;;;5005427;28;20300;-71
2023/03/25 07:28:46;;;;;;;1.67;0.97;;;10.40;99.90;;;;;;5004679;28;20304;-71
2023/03/25 07:31:15;;;;;;;1.23;0.80;;;10.50;99.90;;;;;;5005151;28;20300;-71
2023/03/25 07:33:44;;;;;;;3.70;0.90;;;10.50;99.90;;;;;;5004876;28;20216;-71
2023/03/25 07:36:13;;;;;;;2.33;0.80;;;10.60;99.90;;;;;;5004928;28;20213;-71
2023/03/25 07:38:40;;;;;;;0.63;0.63;;;10.60;99.90;;;;;;5004621;28;20244;-71
2023/03/25 07:41:08;;;;;;;0.70;0.70;;;10.50;99.90;;;;;;5006204;28;20241;-72
2023/03/25 07:43:35;;;;;;;1.73;0.97;;;10.60;99.90;;;;;;5005213;28;20308;-71
2023/03/25 07:46:02;;;;;;;1.90;0.60;;;10.70;99.90;;;;;;5005108;28;20292;-71
2023/03/25 07:48:29;;;;;;;0.83;0.70;;;10.70;99.90;;;;;;5004997;28;20206;-71
2023/03/25 07:50:57;;;;;;;1.60;0.70;;;10.80;99.90;;;;;;5004362;28;20301;-71
2023/03/25 07:53:24;;;;;;;0.97;0.80;;;10.70;99.90;;;;;;5005126;28;20304;-71
2023/03/25 07:55:51;;;;;;;2.80;0.73;;;10.80;99.90;;;;;;5004526;28;21133;-70
2023/03/25 07:58:18;;;;;;;1.57;0.80;;;10.80;99.90;;;;;;5004974;28;20287;-71
2023/03/25 08:00:45;;;;;;;1.13;1.00;;;10.80;99.90;;;;;;5005052;28;20289;-71
2023/03/25 08:03:13;;;;;;;2.53;0.80;;;10.80;99.90;;;;;;5004536;28;20224;-71
2023/03/25 08:05:45;;;;;;;1.77;0.70;;;10.80;99.90;;;;;;5004466;28;20308;-71
2023/03/25 08:08:13;;;;;;;2.00;0.90;;;10.80;99.90;;;;;;5004435;28;20301;-71
2023/03/25 08:10:42;;;;;;;1.20;0.40;;;10.90;99.90;;;;;;5004025;28;20337;-71
2023/03/25 08:13:10;;;;;;;1.17;0.60;;;11.00;99.90;;;;;;4986293;28;20214;-71
2023/03/25 08:15:36;;;;;;;1.60;0.70;;;11.00;99.90;;;;;;4985022;28;20214;-71
2023/03/25 08:18:05;;;;;;;0.97;0.93;;;11.10;99.90;;;;;;4987842;28;20704;-70
2023/03/25 08:20:32;;;;;;;1.67;0.87;;;11.20;99.90;;;;;;5001282;28;20698;-71
2023/03/25 08:22:58;;;;;;;1.50;0.60;;;11.30;99.90;;;;;;5008373;28;20231;-71
2023/03/25 08:25:28;;;;;;;1.20;0.90;;;11.30;99.90;;;;;;5008474;28;20210;-71
2023/03/25 08:27:55;;;;;;;2.20;0.83;;;11.30;99.90;;;;;;5007691;28;20216;-71
2023/03/25 08:30:22;;;;;;;0.70;0.60;;;11.30;99.90;;;;;;5008218;28;20205;-71
2023/03/25 08:32:53;;;;;;;1.00;0.87;;;11.30;99.90;;;;;;5007745;28;20700;-71
2023/03/25 08:35:21;;;;;;;1.20;0.90;;;11.30;99.90;;;;;;5007734;28;20198;-71
2023/03/25 08:37:48;;;;;;;2.20;0.93;;;11.40;99.90;;;;;;5008129;28;20214;-71
2023/03/25 08:40:16;;;;;;;1.77;0.80;;;11.50;99.90;;;;;;5008158;28;20686;-72
2023/03/25 08:42:46;;;;;;;2.00;0.90;;;11.60;99.90;;;;;;5007515;28;20248;-72
2023/03/25 08:45:14;;;;;;;0.80;0.80;;;11.50;99.90;;;;;;5007286;28;20221;-72
2023/03/25 08:47:41;;;;;;;0.70;0.53;;;11.50;99.90;;;;;;5007275;28;20275;-71
2023/03/25 08:50:09;;;;;;;2.03;0.73;;;11.50;99.90;;;;;;5007279;28;20213;-72
2023/03/25 08:52:36;;;;;;;2.63;0.90;;;11.40;99.90;;;;;;5007395;28;20767;-71
2023/03/25 08:55:03;;;;;;;0.90;0.70;;;11.40;99.90;;;;;;5007136;28;20668;-71
2023/03/25 08:57:30;;;;;;;1.40;0.80;;;11.40;99.90;;;;;;5007261;28;20772;-71
2023/03/25 08:59:58;;;;;;;0.70;0.50;;;11.50;99.90;;;;;;5007571;28;20229;-71
2023/03/25 09:02:25;;;;;;;1.63;0.37;;;11.60;99.90;;;;;;5007602;28;20299;-71
2023/03/25 09:04:53;;;;;;;1.30;0.70;;;11.60;99.90;;;;;;5014856;28;20229;-71
2023/03/25 09:07:22;;;;;;;1.10;0.73;;;11.70;99.90;;;;;;5018404;28;20216;-71
2023/03/25 09:09:48;;;;;;;1.13;0.67;;;11.70;99.90;;;;;;5007167;28;20272;-71
2023/03/25 09:12:15;;;;;;;2.83;1.03;;;11.80;99.90;;;;;;5007567;28;20289;-71
2023/03/25 09:14:42;;;;;;;1.07;0.50;;;11.70;99.90;;;;;;5007527;28;20255;-71
2023/03/25 09:17:10;;;;;;;1.50;0.80;;;11.60;99.90;;;;;;5007326;28;20312;-71
2023/03/25 09:19:37;;;;;;;1.53;0.60;;;11.40;99.90;;;;;;5006698;28;20237;-71
2023/03/25 09:22:05;;;;;;;0.70;0.67;;;11.10;99.90;;;;;;5006945;28;20758;-71
2023/03/25 09:24:32;;;;;;;1.03;0.80;;;10.90;99.90;;;;;;5006850;28;20209;-71
2023/03/25 09:27:00;;;;;;;1.13;0.60;;;10.70;99.90;;;;;;5006666;28;20244;-71
2023/03/25 09:29:28;;;;;;;2.07;0.57;;;10.70;99.90;;;;;;5005768;28;20229;-72
2023/03/25 09:31:57;;;;;;;1.17;0.90;;;10.70;99.90;;;;;;5006826;28;20213;-72
2023/03/25 09:34:25;;;;;;;0.83;0.70;;;10.80;99.90;;;;;;5006488;28;20617;-72
2023/03/25 09:36:52;;;;;;;1.70;0.77;;;10.90;99.90;;;;;;5006498;28;20743;-71
2023/03/25 09:39:19;;;;;;;0.90;0.70;;;11.10;99.90;;;;;;5006996;28;20232;-71
2023/03/25 09:42:03;;;;;;;0.70;0.50;;;11.40;99.90;;;;;;5006844;28;20232;-71
2023/03/25 09:44:35;;;;;;;0.90;0.70;;;11.60;99.90;;;;;;4987444;28;20280;-71
2023/03/25 09:47:03;;;;;;;0.97;0.60;;;11.70;99.90;;;;;;4993438;28;20779;-71
2023/03/25 09:49:39;;;;;;;1.30;0.40;;;11.70;99.90;;;;;;5006680;28;20578;-71
2023/03/25 09:52:14;;;;;;;0.50;0.50;;;11.60;99.90;;;;;;5006490;28;20685;-71
2023/03/25 09:54:46;;;;;;;1.60;0.47;;;11.60;99.90;;;;;;5006973;28;20228;-71
2023/03/25 09:57:18;;;;;;;2.03;1.37;;;11.60;99.90;;;;;;5006909;28;20292;-71
2023/03/25 09:59:48;;;;;;;1.87;1.77;;;11.60;99.90;;;;;;5006506;28;20229;-71
2023/03/25 10:02:32;;;;;;;1.00;0.67;;;11.50;99.90;;;;;;5006186;28;20221;-71
2023/03/25 10:05:19;;;;;;;0.47;0.47;;;11.60;99.90;;;;;;5005602;28;20197;-71
2023/03/25 10:07:58;;;;;;;1.13;0.70;;;11.50;99.90;;;;;;5006043;28;20201;-71
2023/03/25 10:10:31;;;;;;;0.50;0.50;;;11.60;99.90;;;;;;5005967;28;20324;-72
2023/03/25 10:13:07;;;;;;;1.10;0.50;;;11.70;99.90;;;;;;4989327;28;20300;-72
2023/03/25 10:15:39;;;;;;;1.37;0.50;;;11.90;99.90;;;;;;4986409;28;20277;-72
2023/03/25 10:18:28;;;;;;;1.13;0.33;;;12.00;99.90;;;;;;4986443;28;20740;-72
2023/03/25 10:21:03;;;;;;;1.03;0.50;;;12.10;99.90;;;;;;4986170;28;20318;-72
2023/03/25 10:23:36;;;;;;;0.50;0.50;;;12.10;99.90;;;;;;4986656;28;20221;-72
2023/03/25 10:26:09;;;;;;;0.73;0.60;;;12.10;99.90;;;;;;4986060;28;20313;-72
2023/03/25 10:28:42;;;;;;;0.80;0.63;;;12.20;99.90;;;;;;4986279;28;20194;-73
2023/03/25 10:31:16;;;;;;;0.57;0.40;;;12.20;99.90;;;;;;4992111;28;20220;-71
2023/03/25 10:33:50;;;;;;;0.60;0.60;;;12.30;99.90;;;;;;5005844;28;20338;-71
2023/03/25 10:36:20;;;;;;;1.67;0.60;;;12.30;99.90;;;;;;5005586;28;20611;-72
2023/03/25 10:38:54;;;;;;;1.37;0.67;;;12.30;99.90;;;;;;5005341;28;20210;-73
2023/03/25 10:41:25;;;;;;;1.43;0.83;;;12.30;99.90;;;;;;5005912;28;20244;-72
2023/03/25 10:43:53;;;;;;;0.93;0.40;;;12.30;99.90;;;;;;5005684;28;20279;-70
2023/03/25 10:46:29;;;;;;;0.97;0.70;;;12.30;99.90;;;;;;5005804;28;20625;-70
2023/03/25 10:48:57;;;;;;;1.13;0.73;;;12.40;99.90;;;;;;5005522;28;20194;-71
2023/03/25 10:51:27;;;;;;;0.40;0.40;;;12.50;99.90;;;;;;5005490;28;20271;-71
2023/03/25 10:53:55;;;;;;;3.37;0.80;;;12.50;99.90;;;;;;5005431;28;20232;-71
2023/03/25 10:56:25;;;;;;;1.50;0.70;;;12.80;99.90;;;;;;5005411;28;20324;-71
2023/03/25 10:58:55;;;;;;;1.30;0.83;;;12.90;99.90;;;;;;4985950;28;20229;-72
2023/03/25 11:01:34;;;;;;;0.90;0.60;;;12.80;99.90;;;;;;4985691;28;20290;-71
2023/03/25 11:04:03;;;;;;;0.50;0.50;;;12.70;99.90;;;;;;4985707;28;20202;-71
2023/03/25 11:06:38;;;;;;;1.50;0.70;;;12.60;99.90;;;;;;4987198;28;20257;-71
2023/03/25 11:09:15;;;;;;;2.57;2.30;;;12.70;99.90;;;;;;5005491;28;20444;-71
2023/03/25 11:11:43;;;;;;;3.10;0.97;;;12.80;99.90;;;;;;5005268;28;20208;-71
2023/03/25 11:14:11;;;;;;;1.10;0.60;;;12.70;99.90;;;;;;5005697;28;20209;-71
2023/03/25 11:16:43;;;;;;;0.67;0.57;;;12.60;99.90;;;;;;5005110;28;20300;-71
2023/03/25 11:19:19;;;;;;;0.60;0.60;;;12.50;99.90;;;;;;5005007;28;20200;-72
2023/03/25 11:21:52;;;;;;;0.70;0.57;;;12.40;99.90;;;;;;5005384;28;20220;-72
2023/03/25 11:24:20;;;;;;;1.50;0.60;;;12.00;99.90;;;;;;5005308;28;20221;-72
2023/03/25 11:26:51;;;;;;;1.33;0.40;;;11.50;99.90;;;;;;5004682;28;20212;-71
2023/03/25 11:29:21;;;;;;;1.00;0.63;;;11.40;99.90;;;;;;5004926;28;20843;-71
2023/03/25 11:31:57;;;;;;;0.50;0.50;;;11.40;99.90;;;;;;5004848;28;20209;-71
2023/03/25 11:34:26;;;;;;;0.70;0.70;;;11.30;99.90;;;;;;5004844;28;20275;-70
2023/03/25 11:37:00;;;;;;;0.63;0.60;;;11.30;99.90;;;;;;5005283;28;20626;-72
2023/03/25 11:39:33;;;;;;;1.13;0.70;;;11.30;99.90;;;;;;5005416;28;20308;-72
2023/03/25 11:42:00;;;;;;;1.03;0.63;;;11.40;99.90;;;;;;5005172;28;20279;-72
2023/03/25 11:44:29;;;;;;;0.93;0.87;;;11.50;99.90;;;;;;5005285;28;20289;-71
2023/03/25 11:46:58;;;;;;;1.70;1.00;;;11.70;99.90;;;;;;5005257;28;20229;-71
2023/03/25 11:49:28;;;;;;;0.80;0.60;;;11.80;99.90;;;;;;5005008;28;20217;-72
2023/03/25 11:52:02;;;;;;;0.70;0.70;;;12.00;99.90;;;;;;5006572;28;20227;-71
2023/03/25 11:54:29;;;;;;;1.50;0.70;;;12.20;99.90;;;;;;5008861;28;20205;-71
2023/03/25 11:56:56;;;;;;;0.53;0.50;;;12.50;99.90;;;;;;5008230;28;20676;-72
2023/03/25 11:59:25;;;;;;;1.30;0.60;;;12.80;99.90;;;;;;5008551;28;20209;-72
2023/03/25 12:02:01;;;;;;;1.50;0.70;;;13.00;99.90;;;;;;5008593;28;20217;-71
2023/03/25 12:04:29;;;;;;;0.73;0.40;;;13.10;99.90;;;;;;5008495;28;20584;-71
2023/03/25 12:07:00;;;;;;;0.60;0.43;;;13.10;99.90;;;;;;5008106;28;20202;-71
2023/03/25 12:09:29;;;;;;;1.67;0.53;;;13.00;99.90;;;;;;5007945;28;20194;-71
2023/03/25 12:12:23;;;;;;;0.67;0.50;;;12.90;99.90;;;;;;5008179;28;20630;-72
2023/03/25 12:15:03;;;;;;;1.23;0.43;;;12.80;99.90;;;;;;5008278;28;20229;-71
2023/03/25 12:17:45;;;;;;;1.03;0.70;;;12.80;99.90;;;;;;5008235;28;20673;-71
2023/03/25 12:20:21;;;;;;;1.63;0.53;;;12.80;99.90;;;;;;5008208;28;20236;-71
2023/03/25 12:23:00;;;;;;;1.77;1.67;;;12.90;99.90;;;;;;5004791;28;20325;-72
2023/03/25 12:25:35;;;;;;;2.30;2.10;;;13.00;99.90;;;;;;4989190;28;20194;-71
2023/03/25 12:28:43;;;;;;;1.70;0.80;;;13.00;99.90;;;;;;4988467;28;20230;-72
2023/03/25 12:31:24;;;;;;;0.67;0.30;;;12.90;99.90;;;;;;4989865;28;20292;-71
2023/03/25 12:34:04;;;;;;;0.27;0.27;;;12.80;99.90;;;;;;5007713;28;20201;-71
2023/03/25 12:36:43;;;;;;;0.40;0.40;;;12.80;99.90;;;;;;5007734;28;20292;-71
2023/03/25 12:39:23;;;;;;;0.30;0.30;;;12.80;99.90;;;;;;5008102;28;20284;-71
2023/03/25 12:42:00;;;;;;;1.60;0.37;;;12.70;99.90;;;;;;5007635;28;20241;-71
2023/03/25 12:44:46;;;;;;;0.57;0.57;;;12.70;99.90;;;;;;5007284;28;20289;-72
2023/03/25 12:47:23;;;;;;;1.23;0.63;;;12.60;99.90;;;;;;5007632;28;20291;-71
2023/03/25 12:50:05;;;;;;;1.03;0.60;;;12.50;99.90;;;;;;5007400;28;20205;-71
2023/03/25 12:52:43;;;;;;;0.50;0.50;;;12.50;99.90;;;;;;5007468;28;20208;-71
2023/03/25 12:55:40;;;;;;;0.73;0.33;;;12.40;99.90;;;;;;5007616;28;20660;-71
2023/03/25 12:58:32;;;;;;;0.50;0.40;;;12.30;99.90;;;;;;5007499;28;20210;-71
2023/03/25 13:01:07;;;;;;;0.30;0.30;;;12.20;99.90;;;;;;5007182;28;20229;-71
2023/03/25 13:03:55;;;;;;;1.07;0.60;;;12.20;99.90;;;;;;5007492;28;20221;-71
2023/03/25 13:06:29;;;;;;;1.03;0.20;;;11.60;99.90;;;;;;5007045;28;20284;-70
2023/03/25 13:09:03;;;;;;;0.83;0.57;;;10.40;99.90;;;;;;5007051;28;20193;-71
2023/03/25 13:11:38;;;;;;;0.43;0.33;;;10.10;99.90;;;;;;5006956;28;20251;-70